createdAt,value
2019-03-24T00:00:34.838Z,5.89
2019-03-24T00:03:03.127Z,5.94
2019-03-24T00:05:31.396Z,5.97
2019-03-24T00:07:59.675Z,5.98
2019-03-24T00:10:27.945Z,5.94
2019-03-24T00:12:56.229Z,5.95
2019-03-24T00:15:26.543Z,5.67
2019-03-24T00:17:54.481Z,5.59
2019-03-24T00:20:22.733Z,5.60
2019-03-24T00:22:51.014Z,5.55
2019-03-24T00:25:19.276Z,5.49
2019-03-24T00:27:47.552Z,5.42
2019-03-24T00:30:15.817Z,5.42
2019-03-24T00:32:44.112Z,5.41
2019-03-24T00:35:12.383Z,5.36
2019-03-24T00:37:40.652Z,5.31
2019-03-24T00:40:08.985Z,5.20
2019-03-24T00:42:37.229Z,5.14
2019-03-24T00:45:08.422Z,5.07
2019-03-24T00:47:36.677Z,5.05
2019-03-24T00:50:07.926Z,5.06
2019-03-24T00:52:36.217Z,5.01
2019-03-24T00:55:07.853Z,4.93
2019-03-24T00:57:37.593Z,4.93
2019-03-24T01:00:08.016Z,4.96
2019-03-24T01:02:36.267Z,4.94
2019-03-24T01:05:06.275Z,4.94
2019-03-24T01:07:34.533Z,4.90
2019-03-24T01:10:03.074Z,4.85
2019-03-24T01:12:31.365Z,4.91
2019-03-24T01:14:59.622Z,4.95
2019-03-24T01:17:27.891Z,4.90
2019-03-24T01:19:56.149Z,4.88
2019-03-24T01:22:24.404Z,4.85
2019-03-24T01:24:52.673Z,4.80
2019-03-24T01:27:20.925Z,4.72
2019-03-24T01:29:49.220Z,4.65
2019-03-24T01:32:17.483Z,4.63
2019-03-24T01:34:45.763Z,4.59
2019-03-24T01:37:14.030Z,4.47
2019-03-24T01:39:42.306Z,4.42
2019-03-24T01:42:10.560Z,4.31
2019-03-24T01:44:38.825Z,4.24
2019-03-24T01:47:07.086Z,4.27
2019-03-24T01:49:35.362Z,4.24
2019-03-24T01:52:03.637Z,4.26
2019-03-24T01:54:31.894Z,4.22
2019-03-24T01:57:00.157Z,4.20
2019-03-24T01:59:28.417Z,4.15
2019-03-24T02:01:56.681Z,4.17
2019-03-24T02:04:24.941Z,4.20
2019-03-24T02:06:53.228Z,4.19
2019-03-24T02:09:21.494Z,4.16
2019-03-24T02:11:50.903Z,4.12
2019-03-24T02:14:19.299Z,4.13
2019-03-24T02:16:47.564Z,4.16
2019-03-24T02:19:15.827Z,4.15
2019-03-24T02:21:44.094Z,4.10
2019-03-24T02:24:12.390Z,4.05
2019-03-24T02:26:40.649Z,4.02
2019-03-24T02:29:08.916Z,4.03
2019-03-24T02:31:37.184Z,4.02
2019-03-24T02:34:05.446Z,4.03
2019-03-24T02:36:33.737Z,4.05
2019-03-24T02:39:02.045Z,4.05
2019-03-24T02:41:30.298Z,4.05
2019-03-24T02:43:58.569Z,4.03
2019-03-24T02:46:26.823Z,4.03
2019-03-24T02:48:55.090Z,4.04
2019-03-24T02:51:23.357Z,4.05
2019-03-24T02:53:51.639Z,4.01
2019-03-24T02:56:19.912Z,3.95
2019-03-24T02:58:48.172Z,3.89
2019-03-24T03:01:16.429Z,3.82
2019-03-24T03:03:44.731Z,3.73
2019-03-24T03:06:12.972Z,3.71
2019-03-24T03:08:41.221Z,3.71
2019-03-24T03:11:09.495Z,3.66
2019-03-24T03:13:37.756Z,3.60
2019-03-24T03:16:06.034Z,3.59
2019-03-24T03:18:34.276Z,3.61
2019-03-24T03:21:02.535Z,3.61
2019-03-24T03:23:30.805Z,3.60
2019-03-24T03:25:59.090Z,3.56
2019-03-24T03:28:27.362Z,3.54
2019-03-24T03:30:55.634Z,3.59
2019-03-24T03:33:23.894Z,3.61
2019-03-24T03:35:52.261Z,3.61
2019-03-24T03:38:20.532Z,3.54
2019-03-24T03:40:48.810Z,3.45
2019-03-24T03:43:17.067Z,3.36
2019-03-24T03:45:45.348Z,3.28
2019-03-24T03:48:13.606Z,3.23
2019-03-24T03:50:41.864Z,-0.43
2019-03-24T03:53:10.129Z,3.11
2019-03-24T03:55:38.404Z,3.05
2019-03-24T03:58:06.685Z,3.02
2019-03-24T04:00:35.993Z,3.00
2019-03-24T04:03:04.329Z,3.00
2019-03-24T04:05:32.582Z,3.02
2019-03-24T04:08:01.523Z,3.01
2019-03-24T04:10:29.886Z,3.00
2019-03-24T04:12:58.134Z,2.93
2019-03-24T04:15:26.474Z,2.94
2019-03-24T04:17:54.725Z,2.94
2019-03-24T04:20:23.021Z,2.93
2019-03-24T04:22:51.355Z,2.90
2019-03-24T04:25:19.627Z,2.79
2019-03-24T04:27:47.894Z,2.78
2019-03-24T04:30:16.163Z,2.69
2019-03-24T04:32:44.415Z,2.59
2019-03-24T04:35:12.710Z,2.60
2019-03-24T04:37:40.968Z,2.60
2019-03-24T04:40:09.258Z,2.61
2019-03-24T04:42:37.493Z,2.56
2019-03-24T04:45:05.883Z,2.52
2019-03-24T04:47:34.176Z,2.45
2019-03-24T04:50:02.441Z,2.43
2019-03-24T04:52:30.721Z,2.40
2019-03-24T04:54:58.988Z,2.34
2019-03-24T04:57:27.241Z,2.29
2019-03-24T04:59:55.501Z,2.24
2019-03-24T05:02:23.766Z,2.23
2019-03-24T05:04:52.025Z,2.23
2019-03-24T05:07:20.305Z,2.25
2019-03-24T05:09:48.598Z,2.28
2019-03-24T05:12:16.856Z,2.25
2019-03-24T05:14:45.166Z,2.21
2019-03-24T05:17:13.402Z,2.20
2019-03-24T05:19:41.670Z,2.19
2019-03-24T05:22:09.939Z,2.21
2019-03-24T05:24:38.194Z,2.30
2019-03-24T05:27:06.462Z,2.33
2019-03-24T05:29:34.727Z,2.33
2019-03-24T05:32:02.990Z,2.34
2019-03-24T05:34:31.248Z,2.37
2019-03-24T05:36:59.506Z,2.36
2019-03-24T05:39:27.767Z,2.36
2019-03-24T05:41:56.030Z,2.41
2019-03-24T05:44:24.361Z,2.39
2019-03-24T05:46:52.650Z,2.40
2019-03-24T05:49:20.886Z,2.45
2019-03-24T05:51:49.157Z,2.46
2019-03-24T05:54:17.412Z,2.48
2019-03-24T05:56:45.676Z,2.55
2019-03-24T05:59:13.936Z,2.57
2019-03-24T06:01:42.223Z,2.56
2019-03-24T06:04:10.478Z,2.57
2019-03-24T06:06:38.738Z,2.63
2019-03-24T06:09:06.999Z,2.68
2019-03-24T06:11:35.259Z,2.73
2019-03-24T06:14:03.525Z,2.81
2019-03-24T06:16:31.783Z,2.88
2019-03-24T06:19:00.041Z,2.93
2019-03-24T06:21:28.311Z,3.04
2019-03-24T06:23:56.568Z,3.16
2019-03-24T06:26:24.830Z,3.23
2019-03-24T06:28:53.115Z,3.34
2019-03-24T06:31:21.370Z,3.43
2019-03-24T06:33:49.636Z,3.50
2019-03-24T06:36:17.900Z,3.60
2019-03-24T06:38:46.167Z,3.68
2019-03-24T06:41:14.482Z,3.78
2019-03-24T06:43:42.777Z,3.88
2019-03-24T06:46:11.033Z,3.94
2019-03-24T06:48:39.288Z,4.00
2019-03-24T06:51:07.561Z,4.09
2019-03-24T06:53:35.814Z,4.18
2019-03-24T06:56:04.076Z,4.30
2019-03-24T06:58:32.350Z,4.41
2019-03-24T07:01:00.629Z,4.52
2019-03-24T07:03:29.171Z,4.65
2019-03-24T07:05:57.434Z,4.78
2019-03-24T07:08:25.689Z,4.91
2019-03-24T07:10:53.956Z,5.08
2019-03-24T07:13:22.212Z,5.26
2019-03-24T07:15:50.477Z,5.47
2019-03-24T07:18:18.763Z,5.67
2019-03-24T07:20:47.016Z,5.87
2019-03-24T07:23:15.282Z,6.09
2019-03-24T07:25:43.538Z,6.30
2019-03-24T07:28:11.827Z,6.54
2019-03-24T07:30:40.095Z,6.80
2019-03-24T07:33:08.382Z,7.06
2019-03-24T07:35:36.670Z,7.33
2019-03-24T07:38:04.938Z,7.55
2019-03-24T07:40:33.192Z,7.77
2019-03-24T07:43:01.469Z,7.96
2019-03-24T07:45:29.730Z,8.18
2019-03-24T07:47:57.983Z,8.39
2019-03-24T07:50:26.260Z,8.60
2019-03-24T07:52:54.550Z,8.80
2019-03-24T07:55:22.806Z,9.01
2019-03-24T07:57:51.228Z,9.22
2019-03-24T08:00:28.598Z,9.45
2019-03-24T08:02:56.890Z,9.75
2019-03-24T08:05:25.155Z,10.11
2019-03-24T08:07:53.415Z,10.44
2019-03-24T08:10:21.682Z,10.80
2019-03-24T08:12:50.056Z,11.16
2019-03-24T08:15:18.316Z,11.46
2019-03-24T08:17:46.581Z,11.73
2019-03-24T08:20:14.873Z,12.00
2019-03-24T08:22:43.149Z,12.29
2019-03-24T08:25:11.416Z,12.57
2019-03-24T08:27:39.690Z,12.86
2019-03-24T08:30:07.963Z,13.12
2019-03-24T08:32:36.221Z,12.99
2019-03-24T08:35:05.923Z,12.74
2019-03-24T08:37:34.216Z,12.98
2019-03-24T08:40:02.515Z,12.95
2019-03-24T08:42:30.787Z,13.06
2019-03-24T08:44:59.058Z,13.11
2019-03-24T08:47:27.319Z,13.29
2019-03-24T08:49:55.593Z,13.57
2019-03-24T08:52:23.871Z,13.81
2019-03-24T08:54:52.136Z,13.88
2019-03-24T08:57:20.401Z,14.12
2019-03-24T08:59:48.670Z,14.32
2019-03-24T09:02:16.939Z,14.35
2019-03-24T09:04:45.217Z,14.57
2019-03-24T09:07:13.479Z,14.73
2019-03-24T09:09:41.747Z,15.07
2019-03-24T09:12:10.029Z,15.40
2019-03-24T09:14:38.291Z,15.62
2019-03-24T09:17:06.548Z,15.78
2019-03-24T09:19:34.809Z,16.02
2019-03-24T09:22:03.069Z,16.16
2019-03-24T09:24:31.324Z,16.32
2019-03-24T09:26:59.588Z,16.54
2019-03-24T09:29:27.923Z,16.77
2019-03-24T09:31:56.185Z,16.98
2019-03-24T09:34:24.443Z,17.12
2019-03-24T09:36:52.701Z,17.36
2019-03-24T09:39:20.960Z,17.59
2019-03-24T09:41:49.317Z,17.78
2019-03-24T09:44:17.582Z,17.81
2019-03-24T09:46:45.842Z,18.06
2019-03-24T09:49:14.108Z,17.59
2019-03-24T09:51:42.367Z,18.38
2019-03-24T09:54:10.646Z,18.17
2019-03-24T09:56:38.896Z,18.36
2019-03-24T09:59:07.160Z,18.60
2019-03-24T10:01:35.424Z,18.73
2019-03-24T10:04:03.683Z,19.01
2019-03-24T10:06:31.983Z,19.29
2019-03-24T10:09:00.276Z,19.44
2019-03-24T10:11:28.509Z,19.55
2019-03-24T10:13:56.801Z,19.66
2019-03-24T10:16:25.066Z,19.55
2019-03-24T10:18:53.328Z,19.24
2019-03-24T10:21:21.641Z,19.40
2019-03-24T10:23:49.923Z,19.28
2019-03-24T10:26:18.187Z,19.31
2019-03-24T10:28:46.442Z,19.60
2019-03-24T10:31:14.701Z,19.67
2019-03-24T10:33:42.966Z,19.92
2019-03-24T10:36:11.241Z,20.03
2019-03-24T10:38:39.504Z,20.22
2019-03-24T10:41:07.767Z,20.35
2019-03-24T10:43:36.029Z,20.35
2019-03-24T10:46:04.310Z,20.32
2019-03-24T10:48:33.891Z,20.39
2019-03-24T10:51:02.338Z,20.53
2019-03-24T10:53:30.619Z,20.63
2019-03-24T10:55:58.893Z,20.78
2019-03-24T10:58:27.226Z,20.83
2019-03-24T11:00:55.571Z,20.78
2019-03-24T11:03:23.836Z,20.93
2019-03-24T11:05:52.090Z,20.87
2019-03-24T11:08:20.402Z,21.11
2019-03-24T11:10:48.678Z,21.03
2019-03-24T11:13:16.939Z,20.76
2019-03-24T11:15:45.201Z,20.75
2019-03-24T11:18:13.466Z,20.86
2019-03-24T11:20:41.752Z,21.06
2019-03-24T11:23:10.012Z,21.29
2019-03-24T11:25:38.292Z,21.53
2019-03-24T11:28:06.550Z,21.58
2019-03-24T11:30:34.806Z,21.66
2019-03-24T11:33:03.083Z,21.66
2019-03-24T11:35:31.353Z,21.80
2019-03-24T11:37:59.605Z,21.80
2019-03-24T11:40:27.886Z,21.83
2019-03-24T11:42:56.172Z,21.86
2019-03-24T11:45:24.435Z,21.99
2019-03-24T11:47:52.737Z,22.10
2019-03-24T11:50:20.994Z,22.22
2019-03-24T11:52:49.257Z,22.46
2019-03-24T11:55:17.519Z,22.53
2019-03-24T11:57:45.790Z,22.56
2019-03-24T12:00:15.412Z,21.94
2019-03-24T12:02:43.673Z,21.35
2019-03-24T12:05:11.949Z,20.85
2019-03-24T12:07:40.205Z,20.83
2019-03-24T12:10:09.210Z,20.86
2019-03-24T12:12:37.510Z,20.78
2019-03-24T12:15:06.413Z,20.69
2019-03-24T12:17:34.678Z,20.62
2019-03-24T12:20:03.731Z,20.88
2019-03-24T12:22:32.004Z,21.21
2019-03-24T12:25:00.419Z,21.56
2019-03-24T12:27:28.705Z,21.31
2019-03-24T12:29:56.975Z,21.53
2019-03-24T12:32:25.246Z,21.77
2019-03-24T12:34:53.504Z,21.71
2019-03-24T12:37:21.769Z,21.85
2019-03-24T12:39:50.026Z,22.05
2019-03-24T12:42:18.313Z,22.18
2019-03-24T12:44:46.573Z,22.37
2019-03-24T12:47:14.839Z,22.48
2019-03-24T12:49:43.100Z,22.63
2019-03-24T12:52:13.122Z,22.50
2019-03-24T12:54:41.366Z,21.82
2019-03-24T12:57:09.629Z,21.80
2019-03-24T12:59:37.916Z,21.76
2019-03-24T13:02:06.176Z,21.56
2019-03-24T13:04:34.442Z,21.53
2019-03-24T13:07:02.704Z,21.30
2019-03-24T13:09:33.479Z,21.40
2019-03-24T13:12:00.981Z,21.46
2019-03-24T13:14:30.749Z,21.46
2019-03-24T13:16:59.291Z,21.52
2019-03-24T13:19:27.570Z,21.32
2019-03-24T13:21:55.851Z,20.78
2019-03-24T13:24:24.109Z,20.63
2019-03-24T13:26:52.408Z,20.31
2019-03-24T13:29:20.655Z,20.16
2019-03-24T13:31:49.020Z,20.09
2019-03-24T13:34:17.253Z,19.84
2019-03-24T13:36:45.524Z,19.81
2019-03-24T13:39:13.795Z,19.87
2019-03-24T13:41:42.063Z,19.80
2019-03-24T13:44:10.331Z,19.96
2019-03-24T13:46:38.595Z,20.00
2019-03-24T13:49:06.924Z,20.04
2019-03-24T13:51:35.174Z,20.08
2019-03-24T13:54:03.435Z,20.09
2019-03-24T13:56:31.699Z,20.02
2019-03-24T13:58:59.977Z,19.99
2019-03-24T14:01:28.255Z,20.01
2019-03-24T14:03:56.523Z,20.07
2019-03-24T14:06:24.777Z,19.89
2019-03-24T14:08:53.044Z,19.67
2019-03-24T14:11:21.304Z,19.56
2019-03-24T14:13:49.563Z,19.27
2019-03-24T14:16:17.829Z,19.30
2019-03-24T14:18:46.093Z,19.40
2019-03-24T14:21:14.386Z,19.40
2019-03-24T14:23:42.657Z,19.18
2019-03-24T14:26:10.909Z,19.17
2019-03-24T14:28:39.173Z,19.14
2019-03-24T14:31:07.465Z,19.02
2019-03-24T14:33:35.694Z,19.09
2019-03-24T14:36:03.959Z,19.16
2019-03-24T14:38:32.236Z,19.20
2019-03-24T14:41:00.505Z,19.23
2019-03-24T14:43:28.767Z,19.28
2019-03-24T14:45:57.020Z,19.25
2019-03-24T14:48:25.296Z,19.20
2019-03-24T14:50:54.983Z,19.03
2019-03-24T14:53:23.404Z,18.90
2019-03-24T14:55:51.669Z,18.96
2019-03-24T14:58:19.936Z,19.03
2019-03-24T15:00:48.963Z,18.99
2019-03-24T15:03:17.234Z,18.88
2019-03-24T15:05:45.484Z,18.80
2019-03-24T15:08:13.757Z,18.77
2019-03-24T15:10:42.011Z,18.78
2019-03-24T15:13:10.271Z,18.73
2019-03-24T15:15:38.544Z,18.63
2019-03-24T15:18:06.795Z,18.55
2019-03-24T15:20:35.075Z,18.49
2019-03-24T15:23:03.349Z,18.50
2019-03-24T15:25:31.642Z,18.52
2019-03-24T15:27:59.906Z,18.53
2019-03-24T15:30:28.160Z,18.56
2019-03-24T15:32:56.422Z,18.45
2019-03-24T15:35:24.688Z,18.25
2019-03-24T15:37:52.946Z,18.17
2019-03-24T15:40:21.225Z,18.10
2019-03-24T15:42:49.491Z,18.01
2019-03-24T15:45:17.742Z,17.94
2019-03-24T15:47:46.009Z,17.85
2019-03-24T15:50:14.269Z,17.79
2019-03-24T15:52:42.553Z,17.78
2019-03-24T15:55:10.815Z,17.73
2019-03-24T15:57:39.081Z,17.73
2019-03-24T16:00:07.415Z,17.69
2019-03-24T16:02:35.673Z,17.55
2019-03-24T16:05:05.676Z,17.45
2019-03-24T16:07:34.009Z,17.35
2019-03-24T16:10:02.270Z,17.25
2019-03-24T16:12:30.527Z,17.16
2019-03-24T16:14:58.794Z,17.05
2019-03-24T16:17:27.061Z,17.00
2019-03-24T16:19:55.319Z,16.85
2019-03-24T16:22:23.616Z,16.77
2019-03-24T16:24:51.883Z,16.66
2019-03-24T16:27:20.146Z,16.47
2019-03-24T16:29:48.412Z,16.22
2019-03-24T16:32:16.666Z,16.00
2019-03-24T16:34:44.934Z,15.79
2019-03-24T16:37:13.207Z,15.61
2019-03-24T16:39:41.471Z,15.48
2019-03-24T16:42:09.734Z,15.43
2019-03-24T16:44:37.999Z,15.30
2019-03-24T16:47:06.266Z,15.24
2019-03-24T16:49:34.526Z,15.14
2019-03-24T16:52:02.812Z,15.04
2019-03-24T16:54:31.087Z,14.99
2019-03-24T16:56:59.361Z,14.88
2019-03-24T16:59:27.618Z,14.82
2019-03-24T17:01:55.882Z,14.76
2019-03-24T17:04:24.156Z,14.71
2019-03-24T17:06:52.414Z,14.69
2019-03-24T17:09:20.717Z,14.56
2019-03-24T17:11:48.985Z,14.44
2019-03-24T17:14:17.282Z,14.35
2019-03-24T17:16:45.514Z,14.34
2019-03-24T17:19:13.806Z,14.34
2019-03-24T17:21:49.949Z,14.21
2019-03-24T17:24:12.068Z,14.19
2019-03-24T17:26:40.344Z,14.12
2019-03-24T17:29:08.667Z,14.06
2019-03-24T17:31:36.943Z,14.00
2019-03-24T17:34:05.197Z,13.96
2019-03-24T17:36:33.463Z,13.89
2019-03-24T17:39:01.765Z,13.83
2019-03-24T17:41:30.063Z,13.78
2019-03-24T17:44:03.131Z,13.73
2019-03-24T17:46:28.304Z,13.70
2019-03-24T17:48:56.568Z,13.70
2019-03-24T17:51:24.830Z,13.67
2019-03-24T17:53:53.087Z,13.63
2019-03-24T17:56:21.348Z,13.54
2019-03-24T17:58:49.643Z,13.51
2019-03-24T18:01:17.903Z,13.46
2019-03-24T18:03:46.173Z,13.38
2019-03-24T18:06:14.471Z,13.35
2019-03-24T18:08:42.749Z,13.21
2019-03-24T18:11:11.011Z,13.10
2019-03-24T18:13:39.279Z,12.97
2019-03-24T18:16:07.551Z,12.90
2019-03-24T18:18:35.813Z,12.83
2019-03-24T18:21:04.074Z,12.78
2019-03-24T18:23:32.357Z,12.68
2019-03-24T18:26:00.611Z,12.59
2019-03-24T18:28:28.885Z,12.55
2019-03-24T18:30:57.150Z,12.51
2019-03-24T18:33:25.458Z,12.49
2019-03-24T18:35:53.686Z,12.45
2019-03-24T18:38:21.958Z,12.44
2019-03-24T18:40:50.224Z,12.45
2019-03-24T18:43:18.491Z,12.41
2019-03-24T18:45:46.751Z,12.37
2019-03-24T18:48:15.029Z,12.30
2019-03-24T18:50:43.295Z,12.27
2019-03-24T18:53:11.559Z,12.22
2019-03-24T18:55:39.821Z,12.14
2019-03-24T18:58:08.085Z,12.13
2019-03-24T19:00:36.357Z,12.08
2019-03-24T19:03:04.644Z,12.01
2019-03-24T19:05:35.096Z,11.94
2019-03-24T19:08:02.906Z,11.89
2019-03-24T19:10:31.182Z,11.85
2019-03-24T19:12:59.441Z,11.78
2019-03-24T19:15:27.709Z,11.72
2019-03-24T19:17:55.972Z,11.65
2019-03-24T19:20:24.260Z,11.63
2019-03-24T19:22:52.524Z,11.60
2019-03-24T19:25:20.787Z,11.56
2019-03-24T19:27:49.058Z,11.55
2019-03-24T19:30:18.063Z,11.55
2019-03-24T19:32:46.403Z,11.55
2019-03-24T19:35:15.138Z,11.50
2019-03-24T19:37:43.404Z,11.46
2019-03-24T19:40:14.929Z,11.42
2019-03-24T19:42:43.203Z,11.38
2019-03-24T19:45:11.473Z,11.35
2019-03-24T19:47:39.745Z,11.29
2019-03-24T19:50:08.015Z,11.25
2019-03-24T19:52:44.371Z,11.20
2019-03-24T19:55:07.250Z,11.14
2019-03-24T19:57:35.536Z,11.11
2019-03-24T20:00:05.143Z,11.02
2019-03-24T20:02:33.412Z,10.98
2019-03-24T20:05:01.688Z,10.92
2019-03-24T20:07:29.953Z,10.87
2019-03-24T20:09:58.221Z,10.82
2019-03-24T20:12:26.482Z,10.80
2019-03-24T20:14:54.759Z,10.73
2019-03-24T20:17:23.024Z,10.65
2019-03-24T20:19:51.296Z,10.59
2019-03-24T20:22:19.587Z,10.54
2019-03-24T20:24:58.545Z,10.50
2019-03-24T20:27:26.845Z,10.45
2019-03-24T20:29:55.110Z,10.37
2019-03-24T20:32:23.372Z,10.35
2019-03-24T20:34:51.639Z,10.33
2019-03-24T20:37:20.773Z,10.28
2019-03-24T20:39:49.052Z,10.24
2019-03-24T20:42:17.325Z,10.19
2019-03-24T20:44:45.595Z,10.16
2019-03-24T20:47:13.859Z,10.12
2019-03-24T20:49:42.132Z,10.07
2019-03-24T20:52:10.400Z,10.05
2019-03-24T20:54:38.710Z,10.02
2019-03-24T20:57:06.974Z,9.95
2019-03-24T20:59:35.236Z,9.87
2019-03-24T21:02:03.520Z,9.75
2019-03-24T21:04:31.775Z,9.64
2019-03-24T21:07:00.043Z,9.54
2019-03-24T21:09:28.307Z,9.44
2019-03-24T21:11:56.577Z,9.34
2019-03-24T21:14:24.851Z,9.24
2019-03-24T21:16:53.131Z,9.15
2019-03-24T21:19:21.434Z,9.13
2019-03-24T21:21:49.792Z,9.07
2019-03-24T21:24:18.153Z,9.01
2019-03-24T21:26:46.422Z,8.93
2019-03-24T21:29:14.747Z,8.85
2019-03-24T21:31:43.017Z,8.82
2019-03-24T21:34:11.276Z,8.83
2019-03-24T21:36:39.549Z,8.79
2019-03-24T21:39:08.231Z,8.79
2019-03-24T21:41:36.651Z,8.81
2019-03-24T21:44:04.915Z,8.83
2019-03-24T21:46:33.206Z,8.79
2019-03-24T21:49:01.574Z,8.76
2019-03-24T21:51:29.972Z,8.74
2019-03-24T21:53:58.260Z,8.67
2019-03-24T21:56:26.614Z,8.66
2019-03-24T21:58:54.981Z,8.67
2019-03-24T22:01:23.250Z,7.85
2019-03-24T22:03:51.546Z,8.64
2019-03-24T22:06:19.825Z,8.63
2019-03-24T22:08:48.097Z,8.59
2019-03-24T22:11:16.436Z,8.55
2019-03-24T22:13:44.714Z,8.52
2019-03-24T22:16:12.988Z,8.54
2019-03-24T22:18:41.252Z,8.52
2019-03-24T22:21:09.612Z,8.53
2019-03-24T22:23:37.941Z,8.48
2019-03-24T22:26:06.176Z,8.44
2019-03-24T22:28:34.462Z,8.39
2019-03-24T22:31:02.828Z,8.37
2019-03-24T22:33:31.126Z,8.37
2019-03-24T22:35:59.397Z,8.31
2019-03-24T22:38:27.684Z,8.26
2019-03-24T22:40:56.004Z,8.21
2019-03-24T22:43:24.306Z,8.19
2019-03-24T22:45:52.583Z,8.16
2019-03-24T22:48:20.865Z,8.17
2019-03-24T22:50:49.248Z,8.16
2019-03-24T22:53:17.535Z,8.16
2019-03-24T22:55:45.846Z,8.17
2019-03-24T22:58:14.143Z,8.21
2019-03-24T23:00:44.145Z,8.24
2019-03-24T23:03:12.477Z,8.28
2019-03-24T23:05:40.757Z,8.29
2019-03-24T23:08:09.051Z,8.30
2019-03-24T23:10:40.156Z,8.30
2019-03-24T23:13:08.461Z,8.30
2019-03-24T23:15:36.793Z,8.29
2019-03-24T23:18:05.248Z,8.33
2019-03-24T23:20:33.547Z,8.37
2019-03-24T23:23:01.885Z,8.41
2019-03-24T23:25:30.225Z,8.44
2019-03-24T23:27:58.535Z,8.47
2019-03-24T23:30:26.810Z,8.48
2019-03-24T23:32:55.083Z,8.54
2019-03-24T23:35:23.421Z,8.54
2019-03-24T23:37:51.733Z,8.59
2019-03-24T23:40:20.044Z,8.59
2019-03-24T23:42:48.503Z,8.62
2019-03-24T23:45:16.828Z,8.67
2019-03-24T23:47:45.126Z,8.68
2019-03-24T23:50:13.412Z,8.72
2019-03-24T23:52:41.821Z,8.77
2019-03-24T23:55:10.115Z,8.80
2019-03-24T23:57:38.410Z,8.82
